Time;durP1;ratioP1;P1;durP2;ratioP2;P2;SDS_P1;SDS_P2;PMS_P1;PMS_P2;Temp;Humidity;BMP_temperature;BMP_pressure;BME280_temperature;BME280_humidity;BME280_pressure;Samples;Min_cycle;Max_cycle;Signal;HPM_P1;HPM_P2
2023/12/05 00:01:02;;;;;;;16.13;11.30;;;;;;;;;;5072928;28;20041;-73
2023/12/05 00:03:27;;;;;;;18.23;11.38;;;4.80;9.80;;;;;;5072748;28;20590;-73
2023/12/05 00:05:53;;;;;;;18.48;11.98;;;;;;;;;;5073132;28;20098;-74
2023/12/05 00:08:19;;;;;;;20.73;12.52;;;;;;;;;;5072577;28;20047;-72
2023/12/05 00:10:45;;;;;;;19.60;12.30;;;;;;;;;;5072716;28;20119;-73
2023/12/05 00:13:11;;;;;;;18.27;10.88;;;;;;;;;;5055675;28;20669;-72
2023/12/05 00:15:37;;;;;;;16.48;10.98;;;;;;;;;;5072884;28;20048;-72
2023/12/05 00:18:03;;;;;;;18.60;11.88;;;;;;;;;;5072618;28;20076;-72
2023/12/05 00:20:29;;;;;;;22.35;12.05;;;5.00;9.90;;;;;;5072356;28;20032;-71
2023/12/05 00:22:55;;;;;;;17.55;11.63;;;;;;;;;;5072225;28;20036;-72
2023/12/05 00:25:21;;;;;;;18.77;11.45;;;;;;;;;;5055315;28;20040;-72
2023/12/05 00:27:47;;;;;;;15.85;11.02;;;5.00;9.70;;;;;;5072120;28;20045;-73
2023/12/05 00:30:13;;;;;;;19.40;10.88;;;;;;;;;;5072067;28;20047;-73
2023/12/05 00:32:39;;;;;;;16.92;11.02;;;;;;;;;;5055363;28;20048;-72
2023/12/05 00:35:05;;;;;;;17.35;11.13;;;5.00;7.50;;;;;;5073426;28;20404;-72
2023/12/05 00:37:31;;;;;;;20.05;12.20;;;;;;;;;;5072355;28;20461;-73
2023/12/05 00:39:57;;;;;;;19.80;11.95;;;;;;;;;;5071738;28;20079;-73
2023/12/05 00:42:23;;;;;;;19.92;12.48;;;;;;;;;;5072095;28;20052;-73
2023/12/05 00:44:49;;;;;;;19.77;12.52;;;;;;;;;;5071895;28;20508;-73
2023/12/05 00:47:15;;;;;;;20.38;12.82;;;;;;;;;;5071996;28;20041;-72
2023/12/05 00:49:41;;;;;;;16.88;11.32;;;;;;;;;;5072027;28;20044;-73
2023/12/05 00:52:07;;;;;;;19.00;11.90;;;;;;;;;;5055220;28;20066;-71
2023/12/05 00:54:33;;;;;;;18.95;12.00;;;;;;;;;;5071748;28;20041;-69
2023/12/05 00:56:58;;;;;;;17.05;11.40;;;5.00;9.70;;;;;;5072418;28;20044;-72
2023/12/05 00:59:24;;;;;;;20.83;12.65;;;;;;;;;;5071764;28;20040;-73
2023/12/05 01:01:50;;;;;;;19.92;12.00;;;;;;;;;;5054916;28;20032;-72
2023/12/05 01:04:17;;;;;;;19.33;12.02;;;;;;;;;;5071417;28;20075;-73
2023/12/05 01:06:43;;;;;;;18.48;12.38;;;5.00;9.20;;;;;;5071783;28;20087;-72
2023/12/05 01:09:10;;;;;;;19.30;12.48;;;;;;;;;;5071299;28;20198;-72
2023/12/05 01:11:36;;;;;;;20.08;12.57;;;;;;;;;;5054436;28;20051;-72
2023/12/05 01:14:03;;;;;;;19.92;12.75;;;;;;;;;;5071244;28;20040;-74
2023/12/05 01:16:28;;;;;;;18.13;12.60;;;5.00;8.60;;;;;;5071581;28;20400;-72
2023/12/05 01:18:54;;;;;;;21.83;13.93;;;;;;;;;;5071054;28;20037;-74
2023/12/05 01:21:20;;;;;;;20.27;13.93;;;;;;;;;;5071411;28;20496;-72
2023/12/05 01:23:46;;;;;;;19.85;13.52;;;;;;;;;;5071306;28;20039;-72
2023/12/05 01:26:12;;;;;;;19.45;13.32;;;5.10;9.20;;;;;;5071056;28;20037;-72
2023/12/05 01:28:38;;;;;;;21.98;14.20;;;;;;;;;;5071015;28;20059;-72
2023/12/05 01:31:04;;;;;;;20.70;13.50;;;5.00;8.90;;;;;;5055041;28;20105;-71
2023/12/05 01:33:30;;;;;;;21.90;13.30;;;;;;;;;;5070925;28;20043;-72
2023/12/05 01:35:56;;;;;;;20.55;13.80;;;;;;;;;;5070955;28;20076;-73
2023/12/05 01:38:21;;;;;;;23.60;14.70;;;5.00;6.10;;;;;;5070546;28;20082;-69
2023/12/05 01:40:47;;;;;;;20.83;14.30;;;;;;;;;;5071190;28;20044;-72
2023/12/05 01:43:13;;;;;;;23.95;15.98;;;;;;;;;;5070825;28;20123;-72
2023/12/05 01:45:39;;;;;;;21.92;15.10;;;;;;;;;;5070922;28;20048;-73
2023/12/05 01:48:05;;;;;;;23.67;15.75;;;;;;;;;;5070807;28;20071;-72
2023/12/05 01:50:32;;;;;;;23.75;14.98;;;;;;;;;;5070757;28;20044;-72
2023/12/05 01:53:00;;;;;;;23.85;16.10;;;;;;;;;;5070403;28;20033;-70
2023/12/05 01:55:28;;;;;;;22.77;15.88;;;4.90;5.30;;;;;;5070645;28;20044;-72
2023/12/05 01:57:55;;;;;;;22.08;15.52;;;;;;;;;;5070725;28;20051;-73
2023/12/05 02:00:23;;;;;;;22.65;15.77;;;4.80;4.60;;;;;;5070458;28;20040;-73
2023/12/05 02:02:49;;;;;;;24.35;15.48;;;;;;;;;;5070540;28;20127;-73
2023/12/05 02:05:15;;;;;;;23.60;16.48;;;;;;;;;;5070557;28;20044;-72
2023/12/05 02:07:41;;;;;;;23.05;16.23;;;;;;;;;;5070445;28;20055;-73
2023/12/05 02:10:09;;;;;;;23.67;16.23;;;;;;;;;;5070239;28;20127;-72
2023/12/05 02:12:37;;;;;;;27.55;17.17;;;4.50;4.80;;;;;;5069607;28;20075;-72
2023/12/05 02:15:03;;;;;;;23.10;15.63;;;;;;;;;;5070611;28;20110;-74
2023/12/05 02:17:29;;;;;;;24.38;16.33;;;;;;;;;;5053720;28;20044;-74
2023/12/05 02:20:37;;;;;;;24.33;16.20;;;4.80;5.80;;;;;;5070069;28;20053;-74
2023/12/05 02:23:02;;;;;;;22.80;15.65;;;;;;;;;;5070162;28;20040;-73
2023/12/05 02:25:47;;;;;;;25.83;15.43;;;;;;;;;;5070409;28;20051;-73
2023/12/05 02:28:14;;;;;;;23.30;15.18;;;5.00;7.00;;;;;;5070289;28;20040;-73
2023/12/05 02:30:40;;;;;;;23.70;14.77;;;;;;;;;;5069956;28;20049;-72
2023/12/05 02:33:06;;;;;;;21.58;15.10;;;;;;;;;;5069986;28;20055;-72
2023/12/05 02:35:32;;;;;;;23.85;15.70;;;;;;;;;;5070210;28;20040;-73
2023/12/05 02:38:10;;;;;;;24.83;15.95;;;;;;;;;;5053695;28;20135;-75
2023/12/05 02:40:46;;;;;;;24.33;16.73;;;;;;;;;;5070271;28;20447;-73
2023/12/05 02:43:16;;;;;;;24.98;15.82;;;;;;;;;;5053201;28;20041;-74
2023/12/05 02:45:46;;;;;;;24.33;15.18;;;4.80;8.70;;;;;;5070150;28;20040;-72
2023/12/05 02:48:13;;;;;;;24.77;15.98;;;;;;;;;;5053703;28;20052;-73
2023/12/05 02:50:39;;;;;;;26.35;17.85;;;4.80;8.90;;;;;;5070014;28;20048;-72
2023/12/05 02:53:05;;;;;;;23.70;15.55;;;4.90;10.90;;;;;;5069829;28;20037;-73
2023/12/05 02:55:31;;;;;;;21.80;14.88;;;;;;;;;;5069820;28;20047;-74
2023/12/05 02:57:57;;;;;;;26.58;16.27;;;;;;;;;;5053356;28;20036;-70
2023/12/05 03:00:23;;;;;;;24.02;15.57;;;;;;;;;;5069682;28;20044;-72
2023/12/05 03:02:49;;;;;;;23.52;14.70;;;;;;;;;;5070214;28;20041;-72
2023/12/05 03:05:15;;;;;;;23.35;15.90;;;;;;;;;;5070169;28;20504;-72
2023/12/05 03:07:41;;;;;;;23.08;15.82;;;;;;;;;;5070372;28;20614;-72
2023/12/05 03:10:08;;;;;;;26.98;16.05;;;;;;;;;;5069590;28;20124;-72
2023/12/05 03:12:34;;;;;;;22.83;15.55;;;;;;;;;;5094546;22;20039;-68
2023/12/05 03:15:00;;;;;;;24.08;15.48;;;;;;;;;;5069761;28;20037;-69
2023/12/05 03:17:26;;;;;;;24.98;15.98;;;;;;;;;;5053088;28;20033;-69
2023/12/05 03:19:52;;;;;;;27.00;15.52;;;;;;;;;;5070840;28;20040;-70
2023/12/05 03:22:18;;;;;;;24.88;16.08;;;;;;;;;;5053192;28;20033;-69
2023/12/05 03:24:44;;;;;;;23.92;15.80;;;;;;;;;;5055549;28;20643;-68
2023/12/05 03:27:10;;;;;;;23.77;15.45;;;;;;;;;;5073283;28;20039;-68
2023/12/05 03:29:36;;;;;;;23.15;16.13;;;4.60;15.20;;;;;;5073459;28;20051;-69
2023/12/05 03:32:02;;;;;;;24.30;15.30;;;;;;;;;;5073172;28;20551;-69
2023/12/05 03:34:27;;;;;;;23.83;14.93;;;;;;;;;;5073561;28;20048;-69
2023/12/05 03:36:53;;;;;;;26.98;16.63;;;4.60;15.80;;;;;;5073152;28;20041;-69
2023/12/05 03:39:19;;;;;;;29.73;16.80;;;;;;;;;;5072810;28;20500;-68
2023/12/05 03:41:47;;;;;;;21.98;14.57;;;;;;;;;;5073152;28;20037;-69
2023/12/05 03:44:13;;;;;;;23.58;16.17;;;;;;;;;;5073093;28;20515;-69
2023/12/05 03:46:38;;;;;;;28.45;17.48;;;4.60;18.20;;;;;;5072958;28;20047;-68
2023/12/05 03:49:04;;;;;;;23.70;14.98;;;4.60;18.00;;;;;;5072835;28;20132;-69
2023/12/05 03:51:30;;;;;;;27.80;16.88;;;4.70;17.20;;;;;;5072701;28;20044;-69
2023/12/05 03:53:56;;;;;;;24.08;15.20;;;;;;;;;;5072873;28;20076;-69
2023/12/05 03:56:22;;;;;;;23.77;15.15;;;;;;;;;;5072789;28;20044;-69
2023/12/05 03:58:48;;;;;;;26.20;16.08;;;;;;;;;;5072869;28;20036;-69
2023/12/05 04:01:14;;;;;;;28.77;17.90;;;;;;;;;;5073198;28;20419;-69
2023/12/05 04:03:40;;;;;;;23.00;15.30;;;;;;;;;;5072641;28;20044;-69
2023/12/05 04:06:06;;;;;;;26.00;16.58;;;;;;;;;;5056117;28;20048;-68
2023/12/05 04:08:32;;;;;;;27.60;16.38;;;;;;;;;;5072375;28;20040;-68
2023/12/05 04:10:58;;;;;;;27.80;17.25;;;;;;;;;;5072641;28;20037;-69
2023/12/05 04:13:24;;;;;;;27.20;17.70;;;4.60;17.90;;;;;;5055742;28;20040;-68
2023/12/05 04:15:49;;;;;;;25.17;16.50;;;4.60;19.70;;;;;;5072709;28;20128;-69
2023/12/05 04:18:15;;;;;;;25.10;15.93;;;;;;;;;;5073741;28;20041;-67
2023/12/05 04:20:41;;;;;;;27.23;17.05;;;4.60;18.20;;;;;;5072579;28;20044;-69
2023/12/05 04:23:07;;;;;;;24.85;15.82;;;;;;;;;;5072109;28;20074;-68
2023/12/05 04:25:33;;;;;;;28.13;17.08;;;;;;;;;;5072167;28;20559;-68
2023/12/05 04:27:59;;;;;;;24.88;17.23;;;;;;;;;;5072342;28;20047;-68
2023/12/05 04:30:24;;;;;;;26.33;17.20;;;4.70;20.10;;;;;;5071908;28;20063;-68
2023/12/05 04:32:50;;;;;;;23.63;15.15;;;;;;;;;;5055511;28;20036;-69
2023/12/05 04:35:16;;;;;;;23.33;15.80;;;4.80;20.20;;;;;;5071797;28;20055;-68
2023/12/05 04:37:43;;;;;;;28.50;16.20;;;;;;;;;;5072134;28;20496;-68
2023/12/05 04:40:09;;;;;;;27.50;17.45;;;4.60;20.50;;;;;;5073176;28;20090;-69
2023/12/05 04:42:34;;;;;;;26.80;17.17;;;4.60;20.30;;;;;;5072160;28;20036;-69
2023/12/05 04:45:00;;;;;;;23.40;16.05;;;4.60;19.20;;;;;;5072126;28;20451;-68
2023/12/05 04:47:26;;;;;;;23.88;16.45;;;;;;;;;;5072536;28;20094;-69
2023/12/05 04:49:52;;;;;;;24.02;16.15;;;;;;;;;;5071675;28;20550;-68
2023/12/05 04:52:18;;;;;;;24.95;16.50;;;;;;;;;;5071798;28;20093;-68
2023/12/05 04:54:43;;;;;;;26.35;17.75;;;4.40;20.20;;;;;;5073314;28;20532;-68
2023/12/05 04:57:09;;;;;;;29.05;17.23;;;4.40;20.30;;;;;;5071820;28;20153;-68
2023/12/05 04:59:35;;;;;;;28.52;18.17;;;;;;;;;;5071623;28;20043;-69
2023/12/05 05:02:01;;;;;;;26.58;16.77;;;;;;;;;;5071738;28;20046;-69
2023/12/05 05:04:27;;;;;;;26.08;16.38;;;;;;;;;;5071695;28;20040;-68
2023/12/05 05:06:53;;;;;;;27.33;18.23;;;;;;;;;;5072784;28;20124;-69
2023/12/05 05:09:19;;;;;;;28.88;17.77;;;;;;;;;;5071310;28;20481;-67
2023/12/05 05:11:45;;;;;;;30.38;17.95;;;;;;;;;;5071811;28;20083;-69
2023/12/05 05:14:11;;;;;;;33.20;19.45;;;4.60;21.30;;;;;;5071301;28;20032;-68
2023/12/05 05:16:36;;;;;;;29.20;17.77;;;4.60;21.40;;;;;;5071433;28;20119;-68
2023/12/05 05:19:02;;;;;;;29.85;18.45;;;4.60;21.40;;;;;;5071172;28;20408;-68
2023/12/05 05:21:28;;;;;;;28.75;18.35;;;;;;;;;;5072511;28;20036;-69
2023/12/05 05:23:54;;;;;;;29.30;18.23;;;;;;;;;;5074125;28;20101;-69
2023/12/05 05:26:20;;;;;;;31.23;18.85;;;;;;;;;;5071273;28;20040;-68
2023/12/05 05:28:46;;;;;;;31.30;19.63;;;;;;;;;;5054433;28;20395;-69
2023/12/05 05:31:12;;;;;;;31.83;19.23;;;;;;;;;;5071414;28;20044;-68
2023/12/05 05:33:37;;;;;;;28.95;18.45;;;4.60;21.80;;;;;;5054156;28;20488;-68
2023/12/05 05:36:04;;;;;;;29.98;18.67;;;;;;;;;;5071117;28;20051;-68
2023/12/05 05:38:30;;;;;;;32.30;19.58;;;;;;;;;;5070932;28;20055;-69
2023/12/05 05:41:06;;;;;;;34.10;19.10;;;4.50;18.90;;;;;;5054574;28;20040;-69
2023/12/05 05:43:31;;;;;;;28.33;18.30;;;4.50;22.10;;;;;;5054085;28;20068;-69
2023/12/05 05:45:57;;;;;;;28.55;18.17;;;4.50;21.60;;;;;;5070909;28;20068;-68
2023/12/05 05:48:23;;;;;;;31.20;19.92;;;;;;;;;;5069694;28;20044;-69
2023/12/05 05:50:50;;;;;;;30.35;18.05;;;;;;;;;;5070509;28;20044;-69
2023/12/05 05:53:16;;;;;;;28.45;18.40;;;;;;;;;;5070549;28;20037;-68
2023/12/05 05:55:41;;;;;;;32.22;20.05;;;4.60;21.40;;;;;;5070992;28;20050;-69
2023/12/05 05:58:10;;;;;;;31.48;18.65;;;4.50;20.10;;;;;;5054358;28;20032;-69
2023/12/05 06:00:36;;;;;;;35.45;19.42;;;;;;;;;;5070497;28;20479;-68
2023/12/05 06:03:03;;;;;;;27.38;17.52;;;4.60;22.50;;;;;;5070493;28;20133;-69
2023/12/05 06:05:29;;;;;;;29.13;19.20;;;4.60;21.80;;;;;;5070819;28;20062;-68
2023/12/05 06:07:55;;;;;;;29.48;18.75;;;4.60;21.90;;;;;;5053988;28;20048;-69
2023/12/05 06:10:21;;;;;;;32.80;20.25;;;4.50;21.90;;;;;;5070149;28;20076;-68
2023/12/05 06:12:47;;;;;;;28.17;18.73;;;;;;;;;;5070511;28;20068;-67
2023/12/05 06:15:12;;;;;;;32.08;18.90;;;4.50;20.80;;;;;;5070668;28;20057;-69
2023/12/05 06:17:38;;;;;;;28.92;17.85;;;;;;;;;;5070374;28;20045;-68
2023/12/05 06:20:05;;;;;;;31.65;19.23;;;4.80;18.90;;;;;;5070242;28;20047;-69
2023/12/05 06:22:31;;;;;;;32.58;20.10;;;4.70;21.40;;;;;;5070646;28;20040;-70
2023/12/05 06:24:57;;;;;;;30.20;17.48;;;4.60;21.20;;;;;;5070402;28;20040;-69
2023/12/05 06:27:23;;;;;;;26.80;17.17;;;;;;;;;;5070484;28;20412;-68
2023/12/05 06:29:50;;;;;;;33.85;19.13;;;;;;;;;;5053086;28;20041;-68
2023/12/05 06:32:15;;;;;;;28.33;18.42;;;4.60;20.50;;;;;;5053289;28;20040;-68
2023/12/05 06:34:41;;;;;;;30.48;19.25;;;;;;;;;;5069898;28;20389;-70
2023/12/05 06:37:08;;;;;;;30.42;18.42;;;;;;;;;;5070016;28;20075;-69
2023/12/05 06:39:34;;;;;;;32.35;18.50;;;4.50;20.90;;;;;;5069732;28;20045;-69
2023/12/05 06:42:00;;;;;;;30.75;18.25;;;4.60;21.00;;;;;;5053521;28;20037;-69
2023/12/05 06:44:25;;;;;;;29.88;18.55;;;4.60;19.00;;;;;;5069955;28;20054;-68
2023/12/05 06:46:51;;;;;;;30.73;18.88;;;;;;;;;;5070208;28;20044;-69
2023/12/05 06:49:17;;;;;;;31.10;19.08;;;;;;;;;;5069930;28;20059;-68
2023/12/05 06:51:43;;;;;;;29.08;18.63;;;;;;;;;;5070111;28;20044;-68
2023/12/05 06:54:09;;;;;;;28.63;18.33;;;4.60;20.90;;;;;;5069996;28;20045;-69
2023/12/05 06:56:35;;;;;;;29.73;17.63;;;4.60;20.90;;;;;;5070208;28;20463;-69
2023/12/05 06:59:03;;;;;;;31.02;18.85;;;;;;;;;;5071791;28;20028;-69
2023/12/05 07:01:29;;;;;;;30.30;18.55;;;4.70;21.10;;;;;;5074297;28;20048;-68
2023/12/05 07:03:58;;;;;;;31.90;19.58;;;;;;;;;;5070820;28;20045;-69
2023/12/05 07:06:24;;;;;;;29.75;17.55;;;;;;;;;;5068528;28;20529;-68
2023/12/05 07:08:50;;;;;;;28.25;18.38;;;4.50;21.20;;;;;;5073980;28;20079;-68
2023/12/05 07:11:15;;;;;;;31.52;19.02;;;4.60;21.50;;;;;;5065864;28;20079;-69
2023/12/05 07:13:41;;;;;;;31.40;19.13;;;;;;;;;;5072292;28;20492;-68
2023/12/05 07:16:07;;;;;;;32.45;18.35;;;;;;;;;;5055150;28;20098;-68
2023/12/05 07:18:33;;;;;;;31.02;18.67;;;;;;;;;;5067286;28;20123;-68
2023/12/05 07:21:00;;;;;;;32.47;18.05;;;;;;;;;;5062195;28;20072;-68
2023/12/05 07:23:26;;;;;;;30.65;19.35;;;;;;;;;;5073786;28;20223;-68
2023/12/05 07:25:54;;;;;;;29.50;18.42;;;;;;;;;;5074379;28;20120;-68
2023/12/05 07:28:20;;;;;;;30.40;17.63;;;;;;;;;;5068163;28;20048;-67
2023/12/05 07:30:46;;;;;;;30.02;18.58;;;;;;;;;;5057089;28;20408;-68
2023/12/05 07:33:12;;;;;;;30.05;17.60;;;;;;;;;;5056078;28;20039;-68
2023/12/05 07:35:38;;;;;;;31.50;18.42;;;;;;;;;;5044778;28;20059;-68
2023/12/05 07:38:04;;;;;;;31.23;19.30;;;;;;;;;;5061529;28;20037;-69
2023/12/05 07:40:30;;;;;;;28.92;18.83;;;;;;;;;;5064101;28;20072;-68
2023/12/05 07:42:56;;;;;;;34.90;20.23;;;;;;;;;;5044000;28;20056;-68
2023/12/05 07:45:22;;;;;;;32.85;19.80;;;;;;;;;;5064642;28;20036;-68
2023/12/05 07:47:48;;;;;;;29.98;18.35;;;;;;;;;;5038445;28;20104;-69
2023/12/05 07:50:14;;;;;;;31.27;18.83;;;;;;;;;;5057013;28;20055;-69
2023/12/05 07:52:41;;;;;;;31.83;18.55;;;;;;;;;;5057343;28;20154;-70
2023/12/05 07:55:07;;;;;;;31.27;18.95;;;;;;;;;;5058392;28;20041;-69
2023/12/05 07:57:33;;;;;;;30.08;18.08;;;;;;;;;;5063366;28;20497;-69
2023/12/05 08:00:01;;;;;;;31.05;18.48;;;;;;;;;;5063991;28;20514;-69
2023/12/05 08:02:27;;;;;;;32.53;19.55;;;;;;;;;;5044046;28;20084;-69
2023/12/05 08:04:53;;;;;;;35.05;20.88;;;;;;;;;;5056219;28;20064;-70
2023/12/05 08:07:19;;;;;;;31.35;19.48;;;;;;;;;;5058670;28;20574;-70
2023/12/05 08:09:46;;;;;;;33.55;19.45;;;;;;;;;;5038620;28;20036;-69
2023/12/05 08:12:12;;;;;;;33.05;19.88;;;;;;;;;;5058758;28;20045;-68
2023/12/05 08:14:39;;;;;;;30.42;19.10;;;4.80;15.90;;;;;;5048839;28;20060;-69
2023/12/05 08:17:05;;;;;;;31.33;18.83;;;;;;;;;;5057427;28;20041;-70
2023/12/05 08:19:31;;;;;;;28.73;18.42;;;;;;;;;;5070420;28;20496;-67
2023/12/05 08:21:57;;;;;;;32.58;19.67;;;;;;;;;;5060117;28;20033;-70
2023/12/05 08:24:23;;;;;;;36.67;20.90;;;;;;;;;;5046746;28;20124;-71
2023/12/05 08:26:49;;;;;;;34.75;20.30;;;;;;;;;;5059884;28;20044;-71
2023/12/05 08:29:15;;;;;;;31.50;19.25;;;;;;;;;;5061955;28;20425;-71
2023/12/05 08:31:41;;;;;;;34.00;19.42;;;;;;;;;;5066654;28;20121;-70
2023/12/05 08:34:07;;;;;;;33.65;19.45;;;;;;;;;;5065424;28;20037;-70
2023/12/05 08:36:33;;;;;;;32.53;19.92;;;;;;;;;;5063099;28;20053;-71
2023/12/05 08:38:59;;;;;;;31.60;19.67;;;;;;;;;;5053583;28;20033;-70
2023/12/05 08:41:25;;;;;;;33.42;19.17;;;;;;;;;;5049095;28;20332;-69
2023/12/05 08:43:51;;;;;;;33.05;20.55;;;;;;;;;;5046357;28;20043;-71
2023/12/05 08:46:18;;;;;;;31.30;19.70;;;;;;;;;;5057121;28;20066;-69
2023/12/05 08:48:44;;;;;;;38.55;21.63;;;;;;;;;;5049161;28;20041;-71
2023/12/05 08:51:10;;;;;;;32.40;19.13;;;;;;;;;;5056416;28;20098;-70
2023/12/05 08:53:36;;;;;;;33.70;19.25;;;;;;;;;;5048716;28;20047;-69
2023/12/05 08:56:04;;;;;;;37.90;22.67;;;;;;;;;;5061794;28;20044;-71
2023/12/05 08:58:30;;;;;;;35.65;21.13;;;;;;;;;;5062853;28;20302;-70
2023/12/05 09:00:56;;;;;;;33.30;19.30;;;;;;;;;;5055276;28;20033;-70
2023/12/05 09:03:22;;;;;;;34.80;19.50;;;4.90;16.90;;;;;;5051456;28;20041;-70
2023/12/05 09:05:47;;;;;;;34.67;20.25;;;4.80;16.80;;;;;;5051866;28;20124;-71
2023/12/05 09:08:13;;;;;;;33.58;20.35;;;;;;;;;;5051764;28;20091;-71
2023/12/05 09:10:39;;;;;;;35.50;20.13;;;;;;;;;;5052046;28;20056;-71
2023/12/05 09:13:05;;;;;;;31.80;18.27;;;;;;;;;;5052003;28;20045;-71
2023/12/05 09:15:31;;;;;;;34.10;18.70;;;;;;;;;;5051674;28;20048;-71
2023/12/05 09:17:57;;;;;;;35.58;19.95;;;;;;;;;;5051658;28;20278;-70
2023/12/05 09:20:23;;;;;;;34.55;19.67;;;;;;;;;;5051709;28;20485;-70
2023/12/05 09:22:49;;;;;;;37.47;20.55;;;4.70;16.10;;;;;;5051116;28;20179;-70
2023/12/05 09:25:15;;;;;;;34.03;19.15;;;4.90;16.00;;;;;;5051985;28;20076;-71
2023/12/05 09:27:40;;;;;;;33.28;18.65;;;4.80;15.90;;;;;;5034735;28;20560;-70
2023/12/05 09:30:06;;;;;;;34.15;19.52;;;4.90;13.80;;;;;;5050810;28;20040;-70
2023/12/05 09:32:32;;;;;;;34.63;20.20;;;;;;;;;;5057757;28;20068;-70
2023/12/05 09:34:59;;;;;;;33.50;18.92;;;;;;;;;;5054669;28;20052;-70
2023/12/05 09:37:25;;;;;;;29.40;18.42;;;4.90;15.30;;;;;;5055659;28;20063;-69
2023/12/05 09:39:51;;;;;;;33.78;19.63;;;;;;;;;;5053680;28;20040;-70
2023/12/05 09:42:19;;;;;;;32.70;18.92;;;5.00;11.90;;;;;;5051170;28;20077;-70
2023/12/05 09:44:46;;;;;;;32.88;18.40;;;;;;;;;;5050688;28;20051;-71
2023/12/05 09:47:18;;;;;;;29.25;18.83;;;4.90;10.80;;;;;;5051318;28;20412;-70
2023/12/05 09:49:44;;;;;;;33.47;19.27;;;;;;;;;;5050710;28;20044;-71
2023/12/05 09:52:10;;;;;;;36.20;20.33;;;4.90;12.70;;;;;;5053073;28;20116;-70
2023/12/05 09:54:37;;;;;;;33.97;19.30;;;5.00;12.70;;;;;;5060932;28;20033;-70
2023/12/05 09:57:03;;;;;;;30.42;19.27;;;;;;;;;;5063307;28;20440;-70
2023/12/05 09:59:29;;;;;;;31.65;19.83;;;;;;;;;;5062600;28;20068;-70
2023/12/05 10:02:02;;;;;;;33.47;19.92;;;4.90;9.40;;;;;;5060797;28;20076;-70
2023/12/05 10:04:29;;;;;;;31.57;17.70;;;5.00;10.10;;;;;;5045312;28;20040;-70
2023/12/05 10:06:58;;;;;;;32.42;19.48;;;4.60;8.90;;;;;;5070817;28;20037;-70
2023/12/05 10:09:27;;;;;;;33.03;19.30;;;5.00;9.80;;;;;;5072543;28;20051;-68
2023/12/05 10:11:53;;;;;;;34.08;20.05;;;5.10;12.00;;;;;;5070438;28;20062;-68
2023/12/05 10:14:19;;;;;;;35.58;20.50;;;5.00;12.00;;;;;;5063896;28;20496;-68
2023/12/05 10:16:44;;;;;;;33.33;20.42;;;5.00;9.30;;;;;;5050641;28;20087;-68
2023/12/05 10:19:11;;;;;;;31.48;20.20;;;;;;;;;;5051311;28;20044;-68
2023/12/05 10:21:37;;;;;;;35.10;20.38;;;;;;;;;;5033804;28;20086;-68
2023/12/05 10:24:03;;;;;;;32.40;18.60;;;5.00;6.90;;;;;;5050055;28;20048;-68
2023/12/05 10:26:29;;;;;;;33.92;20.40;;;;;;;;;;5050432;28;20083;-68
2023/12/05 10:28:56;;;;;;;29.60;18.33;;;4.90;6.70;;;;;;5049941;28;20045;-67
2023/12/05 10:31:22;;;;;;;31.40;19.35;;;;;;;;;;5050433;28;20081;-68
2023/12/05 10:33:49;;;;;;;31.08;18.50;;;5.00;9.70;;;;;;5050716;28;20045;-68
2023/12/05 10:36:15;;;;;;;31.38;19.30;;;;;;;;;;5050234;28;20045;-68
2023/12/05 10:38:45;;;;;;;29.65;18.20;;;;;;;;;;5050246;28;20052;-68
2023/12/05 10:41:12;;;;;;;31.67;19.15;;;;;;;;;;5051615;28;20258;-67
2023/12/05 10:43:38;;;;;;;29.40;19.10;;;;;;;;;;5058223;28;20114;-68
2023/12/05 10:46:05;;;;;;;31.20;19.83;;;;;;;;;;5070021;28;20527;-68
2023/12/05 10:48:31;;;;;;;33.15;19.90;;;5.00;8.90;;;;;;5052948;28;20050;-68
2023/12/05 10:50:56;;;;;;;33.40;18.52;;;4.80;8.30;;;;;;5053465;28;20126;-69
2023/12/05 10:53:22;;;;;;;30.02;18.23;;;4.90;6.60;;;;;;5069886;28;20040;-68
2023/12/05 10:55:48;;;;;;;33.50;19.67;;;;;;;;;;5070324;28;20047;-68
2023/12/05 10:58:14;;;;;;;32.67;19.73;;;;;;;;;;5070195;28;20037;-68
2023/12/05 11:00:41;;;;;;;35.45;20.05;;;;;;;;;;5069070;28;20120;-70
2023/12/05 11:03:06;;;;;;;30.70;18.85;;;5.00;4.10;;;;;;5066006;28;20048;-69
2023/12/05 11:05:33;;;;;;;29.55;18.08;;;5.00;3.70;;;;;;5059592;28;20036;-70
2023/12/05 11:08:00;;;;;;;29.30;18.13;;;4.90;5.90;;;;;;5060544;28;20040;-69
2023/12/05 11:10:26;;;;;;;32.13;19.60;;;;;;;;;;5058753;28;20037;-70
2023/12/05 11:12:53;;;;;;;31.40;19.00;;;;;;;;;;5059732;28;20078;-70
2023/12/05 11:15:27;;;;;;;34.38;19.33;;;4.90;4.20;;;;;;5058321;28;20075;-70
2023/12/05 11:18:12;;;;;;;30.60;17.77;;;5.00;4.10;;;;;;5049729;28;20041;-70
2023/12/05 11:21:02;;;;;;;32.60;18.83;;;;;;;;;;5053182;28;20040;-69
2023/12/05 11:23:45;;;;;;;32.28;18.67;;;4.90;1.60;;;;;;5049830;28;20045;-70
2023/12/05 11:26:20;;;;;;;30.50;18.20;;;;;;;;;;5054763;28;20524;-69
2023/12/05 11:28:46;;;;;;;32.90;20.33;;;;;;;;;;5060849;28;20048;-69
2023/12/05 11:31:51;;;;;;;34.97;20.60;;;4.80;1.50;;;;;;5032699;28;20040;-71
2023/12/05 11:34:24;;;;;;;33.63;20.50;;;;;;;;;;5026454;28;20053;-70
2023/12/05 11:36:50;;;;;;;35.30;20.33;;;;;;;;;;5049465;28;20110;-69
2023/12/05 11:39:16;;;;;;;31.70;19.30;;;;;;;;;;5056027;28;20504;-70
2023/12/05 11:42:02;;;;;;;35.90;19.90;;;;;;;;;;5047325;28;20040;-68
2023/12/05 11:44:34;;;;;;;32.67;18.23;;;;;;;;;;5063136;28;20128;-68
2023/12/05 11:47:03;;;;;;;32.75;20.02;;;;;;;;;;5054587;28;20079;-70
2023/12/05 11:49:49;;;;;;;31.23;19.15;;;;;;;;;;5058595;28;20089;-70
2023/12/05 11:52:16;;;;;;;33.78;19.42;;;;;;;;;;5064390;28;20132;-69
2023/12/05 11:54:42;;;;;;;36.95;19.98;;;;;;;;;;5065566;28;20037;-70
2023/12/05 11:57:12;;;;;;;32.78;19.60;;;;;;;;;;5056003;28;20040;-70
2023/12/05 11:59:40;;;;;;;31.83;18.95;;;;;;;;;;5064696;28;20583;-69
2023/12/05 12:02:07;;;;;;;35.35;21.40;;;;;;;;;;5065141;28;20068;-69
2023/12/05 12:04:32;;;;;;;33.78;19.20;;;4.90;3.80;;;;;;5060518;28;20789;-69
2023/12/05 12:06:59;;;;;;;34.45;20.20;;;;;;;;;;5046204;28;20102;-69
2023/12/05 12:09:25;;;;;;;33.33;20.45;;;;;;;;;;5068364;28;20052;-69
2023/12/05 12:11:51;;;;;;;36.25;20.38;;;;;;;;;;5061703;28;20085;-69
2023/12/05 12:14:20;;;;;;;32.60;20.50;;;;;;;;;;5063139;28;20037;-68
2023/12/05 12:16:46;;;;;;;35.53;20.15;;;;;;;;;;5062681;28;20040;-70
2023/12/05 12:19:14;;;;;;;36.80;21.98;;;;;;;;;;5051687;28;20047;-70
2023/12/05 12:21:41;;;;;;;36.33;19.83;;;;;;;;;;5052749;28;20120;-69
2023/12/05 12:24:08;;;;;;;34.83;20.40;;;5.00;2.00;;;;;;5052268;28;20063;-70
2023/12/05 12:26:33;;;;;;;34.45;19.33;;;5.00;4.60;;;;;;5039617;28;20095;-70
2023/12/05 12:29:06;;;;;;;32.25;18.17;;;5.10;1.90;;;;;;5063528;28;20412;-68
2023/12/05 12:31:32;;;;;;;37.88;20.70;;;4.90;4.60;;;;;;5062622;28;20042;-68
2023/12/05 12:33:57;;;;;;;37.35;20.75;;;4.90;3.90;;;;;;5067158;28;20116;-69
2023/12/05 12:36:23;;;;;;;38.78;22.00;;;;;;;;;;5050567;28;20044;-69
2023/12/05 12:38:50;;;;;;;34.80;20.13;;;;;;;;;;5061481;28;20040;-68
2023/12/05 12:41:16;;;;;;;35.47;20.65;;;;;;;;;;5054323;28;20120;-70
2023/12/05 12:43:46;;;;;;;40.40;21.83;;;5.10;2.60;;;;;;5063440;28;20083;-69
2023/12/05 12:46:13;;;;;;;41.83;22.33;;;;;;;;;;5061806;28;20561;-69
2023/12/05 12:48:39;;;;;;;32.80;20.02;;;5.00;5.20;;;;;;5054214;28;20511;-69
2023/12/05 12:51:06;;;;;;;38.80;22.30;;;5.00;6.10;;;;;;5052194;28;20044;-68
2023/12/05 12:53:32;;;;;;;35.35;20.10;;;;;;;;;;5053438;28;20522;-68
2023/12/05 12:55:58;;;;;;;39.55;22.15;;;;;;;;;;5052908;28;20045;-69
2023/12/05 12:58:39;;;;;;;41.20;22.67;;;5.00;4.50;;;;;;5052936;28;20068;-69
2023/12/05 13:01:05;;;;;;;39.40;22.17;;;4.90;5.70;;;;;;5051897;28;20037;-69
2023/12/05 13:03:32;;;;;;;44.97;21.35;;;;;;;;;;5051846;28;20093;-69
2023/12/05 13:05:58;;;;;;;41.58;22.75;;;4.90;9.10;;;;;;5051787;28;20049;-68
2023/12/05 13:08:25;;;;;;;40.03;21.88;;;;;;;;;;5051601;28;20132;-68
2023/12/05 13:10:51;;;;;;;38.88;22.25;;;;;;;;;;5053037;28;20040;-69
2023/12/05 13:13:17;;;;;;;42.40;23.50;;;5.00;7.60;;;;;;5051642;28;20047;-68
2023/12/05 13:15:44;;;;;;;40.10;20.90;;;;;;;;;;5069564;28;20115;-68
2023/12/05 13:18:11;;;;;;;40.00;22.50;;;4.90;9.80;;;;;;5071290;28;20040;-68
2023/12/05 13:20:54;;;;;;;39.97;22.02;;;5.00;7.70;;;;;;5071304;28;20040;-69
2023/12/05 13:23:22;;;;;;;44.47;23.58;;;4.90;9.30;;;;;;5071524;28;20094;-69
2023/12/05 13:25:49;;;;;;;42.47;22.80;;;4.90;9.60;;;;;;5071355;28;20090;-68
2023/12/05 13:28:14;;;;;;;40.75;23.08;;;4.90;9.80;;;;;;5071134;28;20059;-68
2023/12/05 13:30:41;;;;;;;41.35;23.45;;;4.80;8.00;;;;;;5061440;28;20116;-69
2023/12/05 13:33:07;;;;;;;42.20;22.13;;;4.90;9.60;;;;;;5052389;28;20033;-69
2023/12/05 13:35:33;;;;;;;45.33;24.27;;;;;;;;;;5051039;28;20045;-68
2023/12/05 13:37:59;;;;;;;43.40;22.88;;;;;;;;;;5054289;28;20044;-67
2023/12/05 13:40:24;;;;;;;46.75;23.88;;;4.90;9.20;;;;;;5043887;28;20051;-68